Time;durP1;ratioP1;P1;durP2;ratioP2;P2;SDS_P1;SDS_P2;PMS_P1;PMS_P2;Temp;Humidity;BMP_temperature;BMP_pressure;BME280_temperature;BME280_humidity;BME280_pressure;Samples;Min_cycle;Max_cycle;Signal;HPM_P1;HPM_P2
2023/04/26 00:01:17;;;;;;;10.35;3.47;;;;;;;0.38;100.00;62824.91;4962073;28;20026;-87
2023/04/26 00:03:43;;;;;;;9.47;3.10;;;;;;;0.34;100.00;62821.38;4978910;28;20030;-87
2023/04/26 00:06:09;;;;;;;8.50;3.60;;;;;;;0.31;100.00;62818.31;4969056;28;20700;-87
2023/04/26 00:08:36;;;;;;;7.00;3.10;;;;;;;0.28;100.00;62814.78;4959525;28;20687;-88
2023/04/26 00:11:02;;;;;;;9.38;2.70;;;;;;;0.24;100.00;62810.81;4942348;28;20078;-87
2023/04/26 00:13:32;;;;;;;8.77;2.63;;;;;;;0.21;100.00;62807.59;4949878;28;20023;-87
2023/04/26 00:15:58;;;;;;;9.03;2.87;;;;;;;0.17;100.00;62804.13;4976264;28;20296;-87
2023/04/26 00:18:23;;;;;;;9.48;3.38;;;;;;;0.13;100.00;62800.25;4978132;28;20056;-87
2023/04/26 00:20:48;;;;;;;8.20;2.83;;;;;;;0.09;100.00;62795.72;4979664;28;20031;-87
2023/04/26 00:23:14;;;;;;;6.97;3.20;;;;;;;0.04;100.00;62791.19;4980229;28;20003;-87
2023/04/26 00:25:39;;;;;;;6.80;2.73;;;;;;;0.01;100.00;62787.13;4966766;29;20067;-88
2023/04/26 00:28:05;;;;;;;8.20;2.85;;;;;;;-0.03;100.00;62782.91;4952535;28;20027;-87
2023/04/26 00:30:30;;;;;;;8.53;3.17;;;;;;;-0.07;100.00;62779.53;4945378;29;20050;-87
2023/04/26 00:32:57;;;;;;;9.52;3.15;;;;;;;-0.10;100.00;62776.06;4950723;28;20113;-88
2023/04/26 00:35:22;;;;;;;9.02;3.03;;;;;;;-0.14;100.00;62772.38;4979546;28;20030;-88
2023/04/26 00:37:49;;;;;;;12.70;3.90;;;;;;;-0.17;100.00;62769.47;4961878;28;20379;-87
2023/04/26 00:40:15;;;;;;;10.77;3.20;;;;;;;-0.19;100.00;62767.00;4958998;28;20035;-87
2023/04/26 00:42:41;;;;;;;10.13;3.17;;;;;;;-0.22;100.00;62763.78;4959812;29;20031;-88
2023/04/26 00:45:07;;;;;;;8.97;2.80;;;;;;;-0.25;100.00;62760.75;4960360;28;20027;-88
2023/04/26 00:47:32;;;;;;;8.68;2.95;;;;;;;-0.27;100.00;62758.34;4963420;28;20041;-88
2023/04/26 00:50:00;;;;;;;12.07;3.57;;;;;;;-0.29;100.00;62756.22;4962909;29;20063;-88
2023/04/26 00:52:26;;;;;;;6.78;2.90;;;;;;;-0.32;100.00;62753.25;4979983;28;20027;-88
2023/04/26 00:54:53;;;;;;;8.88;3.00;;;;;;;-0.34;100.00;62750.78;4981474;28;20126;-87
2023/04/26 00:57:20;;;;;;;5.80;2.92;;;;;;;-0.37;100.00;62748.13;4981845;28;20065;-88
2023/04/26 00:59:45;;;;;;;8.93;4.13;;;;;;;-0.40;100.00;62744.75;4981143;29;20023;-87
2023/04/26 01:02:11;;;;;;;7.07;2.93;;;;;;;-0.43;100.00;62742.03;4979505;28;20031;-87
2023/04/26 01:04:36;;;;;;;7.22;2.90;;;;;;;-0.46;100.00;62739.31;4941956;29;20068;-88
2023/04/26 01:07:02;;;;;;;7.00;3.67;;;;;;;-0.49;100.00;62736.81;4948438;29;20035;-88
2023/04/26 01:09:30;;;;;;;10.27;3.55;;;;;;;-0.51;100.00;62734.53;4956906;28;20031;-86
2023/04/26 01:11:57;;;;;;;7.20;3.28;;;;;;;-0.53;100.00;62732.47;4956983;28;20031;-87
2023/04/26 01:14:23;;;;;;;11.13;4.03;;;;;;;-0.55;100.00;62730.66;4939758;29;20434;-87
2023/04/26 01:16:49;;;;;;;8.70;3.53;;;;;;;-0.56;100.00;62729.16;4955061;29;20295;-87
2023/04/26 01:19:15;;;;;;;8.25;3.30;;;;;;;-0.58;100.00;62726.59;4936525;29;20032;-88
2023/04/26 01:21:41;;;;;;;8.52;3.17;;;;;;;-0.60;100.00;62724.72;4939873;29;20038;-87
2023/04/26 01:24:12;;;;;;;8.68;3.40;;;;;;;-0.63;100.00;62722.66;4954494;28;20046;-87
2023/04/26 01:26:44;;;;;;;7.95;3.28;;;;;;;-0.64;100.00;62721.81;4955212;28;20455;-87
2023/04/26 01:29:20;;;;;;;9.27;3.33;;;;;;;-0.65;100.00;62720.00;4951757;28;20023;-88
2023/04/26 01:31:46;;;;;;;11.50;3.33;;;;;;;-0.67;100.00;62718.13;4950925;29;20632;-87
2023/04/26 01:34:12;;;;;;;8.70;3.30;;;;;;;-0.69;100.00;62716.38;4936259;29;20067;-87
2023/04/26 01:36:38;;;;;;;8.32;3.42;;;;;;;-0.70;100.00;62714.72;4952760;28;20395;-87
2023/04/26 01:39:03;;;;;;;9.67;3.53;;;;;;;-0.72;100.00;62712.59;4954769;28;20098;-87
2023/04/26 01:41:29;;;;;;;15.90;3.70;;;;;;;-0.74;100.00;62711.34;4946817;29;20077;-87
2023/04/26 01:43:54;;;;;;;15.57;4.23;;;;;;;-0.74;100.00;62710.78;4955293;29;20554;-87
2023/04/26 01:46:20;;;;;;;14.10;3.65;;;;;;;-0.75;100.00;62710.03;4963028;29;20387;-94
2023/04/26 01:48:46;;;;;;;9.23;3.67;;;;;;;-0.76;100.00;62709.06;4948030;29;20035;-93
2023/04/26 01:51:11;;;;;;;11.60;3.85;;;;;;;-0.78;100.00;62707.56;4979158;28;20035;-91
2023/04/26 01:53:36;;;;;;;12.90;4.03;;;;;;;-0.79;100.00;62706.47;4964686;29;20035;-94
2023/04/26 01:56:04;;;;;;;12.87;3.47;;;;;;;-0.81;100.00;62704.50;4984109;28;20042;-95
2023/04/26 01:58:30;;;;;;;11.00;3.78;;;;;;;-0.84;100.00;62701.78;4989509;28;20073;-93
2023/04/26 02:00:56;;;;;;;9.32;3.30;;;;;;;-0.86;100.00;62699.31;4968488;28;20071;-89
2023/04/26 02:03:22;;;;;;;7.95;3.58;;;;;;;-0.89;100.00;62695.78;4972994;28;20057;-90
2023/04/26 02:05:48;;;;;;;8.57;4.07;;;;;;;-0.92;100.00;62693.03;4946488;28;20031;-89
2023/04/26 02:08:13;;;;;;;10.90;4.00;;;;;;;-0.95;100.00;62690.19;4938903;29;20847;-90
2023/04/26 02:10:40;;;;;;;12.63;4.00;;;;;;;-0.98;100.00;62686.72;4948501;28;20480;-89
2023/04/26 02:13:07;;;;;;;6.45;3.47;;;;;;;-1.01;100.00;62683.91;4954643;28;20387;-88
2023/04/26 02:15:32;;;;;;;12.70;4.05;;;;;;;-1.05;100.00;62680.13;4946450;28;20024;-89
2023/04/26 02:17:58;;;;;;;8.73;3.50;;;;;;;-1.09;100.00;62676.66;4936926;29;20054;-89
2023/04/26 02:20:23;;;;;;;8.13;3.90;;;;;;;-1.12;100.00;62672.63;4947136;28;20043;-89
2023/04/26 02:22:48;;;;;;;11.13;4.20;;;;;;;-1.16;100.00;62668.84;4955906;29;20028;-89
2023/04/26 02:25:14;;;;;;;8.93;4.00;;;;;;;-1.19;100.00;62665.69;4949650;28;20031;-89
2023/04/26 02:27:39;;;;;;;8.47;3.90;;;;;;;-1.22;100.00;62663.28;4946572;29;20533;-88
2023/04/26 02:30:06;;;;;;;12.13;3.85;;;;;;;-1.25;100.00;62661.00;4954836;28;20029;-89
2023/04/26 02:32:31;;;;;;;12.77;3.73;;;;;;;-1.26;100.00;62658.94;4955414;29;20146;-89
2023/04/26 02:34:57;;;;;;;11.93;3.95;;;;;;;-1.29;100.00;62656.31;4954984;28;20483;-89
2023/04/26 02:37:22;;;;;;;7.57;4.23;;;;;;;-1.31;100.00;62654.47;4936279;29;20037;-89
2023/04/26 02:39:50;;;;;;;8.83;3.60;;;;;;;-1.32;100.00;62653.56;4935429;29;20035;-89
2023/04/26 02:42:16;;;;;;;11.20;4.78;;;;;;;-1.34;100.00;62650.63;4941358;29;20039;-89
2023/04/26 02:44:41;;;;;;;11.30;4.20;;;;;;;-1.35;100.00;62649.72;4954204;29;20097;-89
2023/04/26 02:47:07;;;;;;;9.00;4.18;;;;;;;-1.36;100.00;62648.88;4937340;29;20027;-89
2023/04/26 02:49:33;;;;;;;10.13;4.28;;;;;;;-1.38;100.00;62647.16;4954090;28;20118;-89
2023/04/26 02:51:58;;;;;;;11.07;3.87;;;;;;;-1.40;100.00;62644.84;4954913;29;20027;-88
2023/04/26 02:54:24;;;;;;;6.40;3.93;;;;;;;-1.42;100.00;62642.72;4956743;28;20046;-88
2023/04/26 02:56:49;;;;;;;13.07;4.50;;;;;;;-1.44;100.00;62640.72;4963152;28;20043;-87
2023/04/26 02:59:15;;;;;;;12.67;4.30;;;;;;;-1.46;100.00;62639.16;4960684;28;20035;-88
2023/04/26 03:01:40;;;;;;;8.57;3.93;;;;;;;-1.48;100.00;62637.69;4959448;28;20097;-88
2023/04/26 03:04:06;;;;;;;8.00;3.90;;;;;;;-1.49;100.00;62635.94;4968520;29;20041;-88
2023/04/26 03:06:32;;;;;;;9.18;3.92;;;;;;;-1.52;100.00;62633.78;4971456;29;20079;-88
2023/04/26 03:08:57;;;;;;;9.70;4.43;;;;;;;-1.54;100.00;62630.84;4957297;29;20149;-88
2023/04/26 03:11:22;;;;;;;12.13;4.70;;;;;;;-1.57;100.00;62627.88;4975548;28;20054;-90
2023/04/26 03:13:51;;;;;;;12.37;4.70;;;;;;;-1.59;100.00;62625.72;4965067;29;20027;-88
2023/04/26 03:16:20;;;;;;;13.45;5.00;;;;;;;-1.61;100.00;62623.75;4948182;29;20048;-88
2023/04/26 03:18:45;;;;;;;9.30;4.55;;;;;;;-1.63;100.00;62621.78;4953666;28;20035;-89
2023/04/26 03:21:10;;;;;;;11.63;5.40;;;;;;;-1.66;100.00;62619.88;4976012;28;20033;-88
2023/04/26 03:23:36;;;;;;;11.53;5.10;;;;;;;-1.68;100.00;62617.88;4970115;28;20026;-88
2023/04/26 03:26:02;;;;;;;12.30;4.80;;;;;;;-1.70;100.00;62615.66;4958132;28;20458;-89
2023/04/26 03:28:28;;;;;;;17.08;4.68;;;;;;;-1.72;100.00;62613.53;4962911;29;20031;-88
2023/04/26 03:30:54;;;;;;;13.75;5.13;;;;;;;-1.75;100.00;62611.06;4971651;28;20031;-86
2023/04/26 03:33:20;;;;;;;15.93;5.27;;;;;;;-1.77;100.00;62609.06;4971459;29;20054;-89
2023/04/26 03:35:45;;;;;;;14.43;5.35;;;;;;;-1.79;100.00;62607.34;4963435;28;20038;-88
2023/04/26 03:38:10;;;;;;;10.43;4.73;;;;;;;-1.80;100.00;62605.63;4970985;29;20043;-87
2023/04/26 03:40:36;;;;;;;14.23;5.03;;;;;;;-1.82;100.00;62604.56;4967660;29;20029;-88
2023/04/26 03:43:01;;;;;;;16.47;5.50;;;;;;;-1.84;100.00;62602.50;4975417;28;20030;-87
2023/04/26 03:45:27;;;;;;;11.17;4.90;;;;;;;-1.85;100.00;62601.00;4965109;28;20298;-86
2023/04/26 03:47:52;;;;;;;16.50;5.23;;;;;;;-1.87;100.00;62599.28;4958179;28;20031;-88
2023/04/26 03:50:18;;;;;;;15.07;5.03;;;;;;;-1.88;100.00;62598.28;4966253;28;20027;-87
2023/04/26 03:52:43;;;;;;;15.50;5.88;;;;;;;-1.89;100.00;62597.53;4968545;28;20020;-87
2023/04/26 03:55:10;;;;;;;11.97;5.03;;;;;;;-1.90;100.00;62596.38;4969790;28;20023;-88
2023/04/26 03:57:36;;;;;;;13.98;4.95;;;;;;;-1.91;100.00;62595.25;4972393;28;20019;-87
2023/04/26 04:00:01;;;;;;;8.73;5.03;;;;;;;-1.93;100.00;62593.59;4971872;29;20043;-88
2023/04/26 04:02:27;;;;;;;11.90;5.30;;;;;;;-1.95;100.00;62591.47;4970997;28;20103;-88
2023/04/26 04:04:52;;;;;;;12.60;4.90;;;;;;;-1.96;100.00;62589.78;4969530;28;20015;-87
2023/04/26 04:07:18;;;;;;;11.47;5.30;;;;;;;-1.98;100.00;62588.06;4968784;29;20090;-87
2023/04/26 04:09:43;;;;;;;12.98;5.22;;;;;;;-2.00;100.00;62586.34;4965906;28;20514;-87
2023/04/26 04:12:08;;;;;;;12.27;5.27;;;;;;;-2.02;100.00;62584.19;4969446;29;20042;-87
2023/04/26 04:14:34;;;;;;;13.63;5.73;;;;;;;-2.04;100.00;62582.13;4964787;29;20015;-87
2023/04/26 04:16:59;;;;;;;15.80;5.07;;;;;;;-2.06;100.00;62580.06;4959694;28;20019;-89
2023/04/26 04:19:25;;;;;;;12.52;4.85;;;;;;;-2.09;100.00;62577.38;4937707;29;20058;-90
2023/04/26 04:21:50;;;;;;;10.53;5.20;;;;;;;-2.10;100.00;62575.91;4956739;28;20031;-87
2023/04/26 04:24:16;;;;;;;13.03;5.30;;;;;;;-2.12;100.00;62574.41;4944028;29;20028;-87
2023/04/26 04:26:41;;;;;;;13.63;4.95;;;;;;;-2.13;100.00;62572.69;4940187;28;20051;-86
2023/04/26 04:29:10;;;;;;;15.90;6.00;;;;;;;-2.14;100.00;62571.28;4951839;28;20024;-86
2023/04/26 04:31:35;;;;;;;13.75;5.15;;;;;;;-2.15;100.00;62571.03;4961546;28;20031;-86
2023/04/26 04:34:01;;;;;;;12.80;5.37;;;;;;;-2.15;100.00;62570.88;4962823;28;20049;-87
2023/04/26 04:36:26;;;;;;;14.90;6.03;;;;;;;-2.14;100.00;62571.78;4961039;28;20310;-86
2023/04/26 04:38:52;;;;;;;14.17;6.43;;;;;;;-2.13;100.00;62572.34;4946670;29;20512;-87
2023/04/26 04:41:19;;;;;;;18.58;7.32;;;;;;;-2.12;100.00;62573.19;4940269;29;20031;-86
2023/04/26 04:43:44;;;;;;;10.00;5.53;;;;;;;-2.11;100.00;62574.25;4957183;28;20045;-86
2023/04/26 04:46:09;;;;;;;17.17;6.87;;;;;;;-2.09;100.00;62575.59;4954289;28;20292;-85
2023/04/26 04:48:37;;;;;;;16.67;6.40;;;;;;;-2.07;100.00;62577.88;4957234;29;20387;-86
2023/04/26 04:51:02;;;;;;;13.30;6.18;;;;;;;-2.04;100.00;62581.00;4954393;29;20061;-87
2023/04/26 04:53:28;;;;;;;17.53;7.07;;;;;;;-2.00;100.00;62584.81;4955879;29;20038;-87
2023/04/26 04:55:53;;;;;;;18.47;7.37;;;;;;;-1.96;100.00;62588.91;4938809;29;20043;-87
2023/04/26 04:58:18;;;;;;;17.90;7.10;;;;;;;-1.92;100.00;62593.53;4954628;28;20063;-86
2023/04/26 05:00:45;;;;;;;19.23;7.20;;;;;;;-1.87;100.00;62597.56;4954379;28;20303;-87
2023/04/26 05:03:13;;;;;;;11.68;6.03;;;;;;;-1.82;100.00;62602.59;4954664;28;20042;-87
2023/04/26 05:05:39;;;;;;;14.17;6.43;;;;;;;-1.78;100.00;62606.88;4955145;29;20016;-87
2023/04/26 05:08:06;;;;;;;16.37;7.00;;;;;;;-1.72;100.00;62612.66;4955405;29;20358;-87
2023/04/26 05:10:33;;;;;;;17.75;7.05;;;;;;;-1.66;100.00;62618.91;4951378;29;20031;-87
2023/04/26 05:12:59;;;;;;;15.18;7.15;;;;;;;-1.59;100.00;62625.56;4947246;29;20035;-87
2023/04/26 05:15:24;;;;;;;23.33;7.47;;;;;;;-1.52;100.00;62632.91;4954387;29;20058;-87
2023/04/26 05:20:25;;;;;;;17.90;7.53;;;;;;;-1.36;100.00;62648.63;5936565;23;20112;-90
2023/04/26 05:22:50;;;;;;;18.53;7.70;;;;;;;-1.26;100.00;62658.69;4937954;29;20299;-89
2023/04/26 05:25:16;;;;;;;20.07;7.53;;;;;;;-1.14;100.00;62670.47;4941145;29;20040;-89
2023/04/26 05:27:41;;;;;;;20.30;8.47;;;;;;;-1.01;100.00;62683.84;4942767;29;20287;-90
2023/04/26 05:30:07;;;;;;;19.10;7.57;;;;;;;-0.87;100.00;62696.94;4927975;29;20055;-90
2023/04/26 05:32:33;;;;;;;15.85;7.88;;;;;;;-0.74;100.00;62709.56;4939266;29;20023;-90
2023/04/26 05:34:58;;;;;;;18.43;8.03;;;;;;;-0.62;100.00;62721.59;4938703;29;20062;-95
2023/04/26 05:37:26;;;;;;;19.10;7.50;;;;;;;-0.51;100.00;62732.56;4933322;28;20036;-85
2023/04/26 05:39:51;;;;;;;17.05;7.50;;;;;;;-0.40;100.00;62744.03;4931550;29;20021;-83
2023/04/26 05:42:18;;;;;;;19.77;7.33;;;;;;;-0.29;100.00;62754.34;4922095;29;20179;-84
2023/04/26 05:44:43;;;;;;;18.65;7.70;;;;;;;-0.20;100.00;62763.56;4919652;29;20024;-83
2023/04/26 05:47:09;;;;;;;21.40;8.03;;;;;;;-0.11;100.00;62772.91;4915738;29;20055;-87
2023/04/26 05:49:35;;;;;;;22.63;8.20;;;;;;;-0.02;100.00;62781.97;4918567;29;20031;-85
2023/04/26 05:52:00;;;;;;;22.23;8.97;;;;;;;0.07;100.00;62790.78;4931567;29;20078;-85
2023/04/26 05:54:28;;;;;;;22.85;7.85;;;;;;;0.16;100.00;62799.78;4935832;29;20395;-85
2023/04/26 05:56:53;;;;;;;20.00;8.57;;;;;;;0.26;100.00;62809.03;4922673;29;20115;-84
2023/04/26 05:59:19;;;;;;;24.23;9.70;;;;;;;0.35;100.00;62817.94;4916365;29;20127;-84
2023/04/26 06:01:49;;;;;;;22.67;9.07;;;;;;;0.44;100.00;62827.59;4920693;29;20031;-85
2023/04/26 06:04:14;;;;;;;21.43;9.23;;;;;;;0.55;100.00;62837.66;4915513;29;20347;-87
2023/04/26 06:06:41;;;;;;;28.58;9.80;;;;;;;0.65;100.00;62848.06;4930129;29;20055;-84
2023/04/26 06:09:06;;;;;;;23.60;9.30;;;;;;;0.76;100.00;62859.13;4927791;29;20098;-85
2023/04/26 06:11:31;;;;;;;24.30;9.45;;;;;;;0.88;100.00;62870.84;4932689;29;20036;-85
2023/04/26 06:13:58;;;;;;;23.80;8.93;;;;;;;1.00;100.00;62883.56;4916010;29;20660;-84
2023/04/26 06:16:23;;;;;;;23.42;9.50;;;;;;;1.14;100.00;62896.78;4930447;29;20496;-84
2023/04/26 06:18:48;;;;;;;18.50;8.13;;;;;;;1.28;100.00;62910.91;4932757;29;20031;-83
2023/04/26 06:21:14;;;;;;;18.47;8.50;;;;;;;1.43;100.00;62925.94;4919500;29;20027;-85
2023/04/26 06:23:40;;;;;;;22.93;9.00;;;;;;;1.59;100.00;62941.81;4932331;29;20075;-83
2023/04/26 06:26:05;;;;;;;17.65;8.40;;;;;;;1.76;100.00;62958.66;4926212;29;20039;-84
2023/04/26 06:28:31;;;;;;;18.50;7.53;;;;;;;1.93;100.00;62975.66;4916553;29;20027;-84
2023/04/26 06:30:56;;;;;;;16.15;7.63;;;;;;;2.09;100.00;62992.03;4916604;29;20153;-83
2023/04/26 06:33:21;;;;;;;16.47;7.23;;;;;;;2.25;100.00;63007.72;4923312;29;20028;-83
2023/04/26 06:35:46;;;;;;;24.03;7.50;;;;;;;2.40;100.00;63023.00;4921390;29;20091;-83
2023/04/26 06:38:12;;;;;;;14.70;6.03;;;;;;;2.55;100.00;63037.50;4928090;29;20031;-83
2023/04/26 06:40:37;;;;;;;16.03;6.83;;;;;;;2.69;100.00;63052.59;4933553;29;20031;-84
2023/04/26 06:43:05;;;;;;;16.93;6.53;;;;;;;2.85;100.00;63068.16;4898000;29;20036;-83
2023/04/26 06:45:32;;;;;;;17.70;6.72;;;;;;;3.01;100.00;63084.28;4923383;29;20118;-83
2023/04/26 06:47:59;;;;;;;16.65;6.10;;;;;;;3.18;100.00;63101.50;4914341;29;20514;-83
2023/04/26 06:50:25;;;;;;;17.88;6.82;;;;;;;3.36;100.00;63119.69;4914724;29;20059;-83
2023/04/26 06:52:50;;;;;;;18.23;6.25;;;;;;;3.55;100.00;63138.69;4932168;29;20487;-84
2023/04/26 06:55:15;;;;;;;10.00;5.57;;;;;;;3.73;100.00;63156.75;4916065;29;20115;-83
2023/04/26 07:15:49;;;;;;;10.95;3.70;;;;;;;5.00;94.89;63284.91;5554347;23;21282;-80
2023/04/26 07:22:26;;;;;;;13.45;4.25;;;;;;;5.29;99.71;63313.72;4911094;29;20063;-82
2023/04/26 07:25:47;;;;;;;8.70;3.58;;;;;;;5.42;99.87;63326.25;4914092;29;20072;-81
2023/04/26 07:33:14;;;;;;;8.65;2.80;;;;;;;5.78;90.59;63362.38;5119338;23;20403;-81
2023/04/26 07:35:39;;;;;;;12.50;3.50;;;;;;;5.90;88.86;63374.06;4932870;29;20031;-81
2023/04/26 07:38:06;;;;;;;10.10;2.67;;;;;;;6.01;90.31;63385.94;4932918;29;20283;-81
2023/04/26 07:40:31;;;;;;;7.53;3.72;;;;;;;6.13;89.95;63397.97;4927228;29;20035;-81
2023/04/26 07:42:56;;;;;;;12.57;3.07;;;;;;;6.26;88.42;63410.31;4896631;29;20715;-81
2023/04/26 07:45:22;;;;;;;9.73;2.80;;;;;;;6.37;87.35;63422.09;4942450;29;20023;-81
2023/04/26 07:47:47;;;;;;;9.90;2.50;;;;;;;6.49;85.51;63433.78;4925844;29;21022;-81
2023/04/26 07:50:12;;;;;;;8.90;2.97;;;;;;;6.60;84.53;63445.41;4925481;29;20031;-81
2023/04/26 07:52:38;;;;;;;10.03;2.50;;;;;;;6.71;82.16;63456.69;4935627;29;20554;-81
2023/04/26 07:55:05;;;;;;;7.70;2.57;;;;;;;6.82;81.34;63467.97;4927021;29;20039;-82
2023/04/26 07:57:31;;;;;;;8.68;3.03;;;;;;;6.93;80.53;63478.91;4932876;29;20020;-81
2023/04/26 07:59:56;;;;;;;11.23;2.10;;;;;;;7.03;73.95;63488.88;4931286;29;20403;-82
2023/04/26 08:02:22;;;;;;;6.75;1.40;;;;;;;7.12;75.01;63498.41;4920371;29;20444;-81
2023/04/26 08:04:56;;;;;;;5.70;1.00;;;;;;;7.22;71.36;63508.44;4940266;29;20027;-82
2023/04/26 08:07:21;;;;;;;4.85;1.45;;;;;;;7.31;72.72;63517.47;4952013;29;20032;-83
2023/04/26 08:09:47;;;;;;;6.63;1.50;;;;;;;7.40;73.32;63526.94;4929276;29;20064;-83
2023/04/26 08:12:13;;;;;;;6.75;1.65;;;;;;;7.49;72.74;63535.59;4921776;29;20051;-82
2023/04/26 08:14:39;;;;;;;6.30;1.60;;;;;;;7.57;72.14;63544.06;4913077;29;20551;-82
2023/04/26 08:17:10;;;;;;;4.70;1.20;;;;;;;7.65;71.25;63551.94;4919593;29;20028;-82
2023/04/26 08:19:35;;;;;;;5.00;1.05;;;;;;;7.75;70.02;63561.47;4919079;29;20040;-83
2023/04/26 08:22:01;;;;;;;5.00;1.07;;;;;;;7.86;67.58;63573.19;4932292;29;20024;-82
2023/04/26 08:24:26;;;;;;;4.33;0.97;;;;;;;7.99;64.66;63585.97;4927892;29;20543;-82
2023/04/26 08:26:52;;;;;;;2.50;0.73;;;;;;;8.10;63.26;63597.84;4936383;29;20226;-82
2023/04/26 08:29:18;;;;;;;4.17;0.90;;;;;;;8.21;65.08;63609.22;4907607;29;20036;-83
2023/04/26 08:31:43;;;;;;;7.07;1.10;;;;;;;8.31;61.87;63619.59;4916925;29;20038;-81
2023/04/26 08:34:10;;;;;;;7.90;1.33;;;;;;;8.39;63.51;63627.31;4919863;29;20035;-81
2023/04/26 08:36:36;;;;;;;2.40;0.90;;;;;;;8.47;62.91;63636.06;4933183;29;20161;-81
2023/04/26 08:39:01;;;;;;;4.47;1.23;;;;;;;8.58;63.67;63646.28;4933825;29;20087;-82
2023/04/26 08:41:27;;;;;;;4.20;0.90;;;;;;;8.69;59.51;63658.41;4936199;29;20043;-82
2023/04/26 08:43:54;;;;;;;4.20;1.08;;;;;;;8.83;63.05;63672.19;4933834;29;20039;-82
2023/04/26 08:49:12;;;;;;;3.10;1.33;;;;;;;9.11;57.91;63700.28;4934467;29;20040;-82
2023/04/26 08:51:38;;;;;;;3.08;1.23;;;;;;;9.23;58.93;63712.31;4938245;29;20058;-81
2023/04/26 08:54:10;;;;;;;3.67;1.10;;;;;;;9.32;60.04;63722.22;4936786;29;20570;-82
2023/04/26 08:56:36;;;;;;;6.30;1.10;;;;;;;9.40;59.39;63730.13;4943909;29;20276;-82
2023/04/26 08:59:01;;;;;;;4.40;1.45;;;;;;;9.45;60.05;63735.13;4940687;29;20039;-83
2023/04/26 09:01:29;;;;;;;6.80;1.40;;;;;;;9.49;61.55;63738.94;4943275;29;20059;-82
2023/04/26 09:03:55;;;;;;;4.55;1.42;;;;;;;9.53;64.00;63742.69;4938354;29;20157;-83
2023/04/26 09:06:23;;;;;;;3.73;1.47;;;;;;;9.58;63.10;63748.84;4940782;29;20063;-83
2023/04/26 09:08:52;;;;;;;4.00;1.50;;;;;;;9.65;58.25;63755.22;4937076;29;20283;-80
2023/04/26 09:11:17;;;;;;;6.03;1.40;;;;;;;9.71;60.88;63761.13;4935699;29;20036;-81
2023/04/26 09:13:42;;;;;;;3.63;1.40;;;;;;;9.77;58.30;63767.78;4934481;29;20502;-81
2023/04/26 09:16:09;;;;;;;4.60;1.53;;;;;;;9.84;60.85;63775.09;4933787;29;20355;-81
2023/04/26 09:18:46;;;;;;;7.83;2.13;;;;;;;9.92;60.82;63783.25;4935186;29;20032;-80
2023/04/26 09:21:14;;;;;;;7.30;1.80;;;;;;;10.01;55.68;63792.22;4934764;29;20288;-82
2023/04/26 09:24:03;;;;;;;5.07;1.30;;;;;;;10.11;58.20;63801.69;4933718;29;20509;-81
2023/04/26 09:26:29;;;;;;;4.43;1.65;;;;;;;10.20;55.68;63811.69;4935815;29;20035;-81
2023/04/26 09:29:17;;;;;;;6.18;1.85;;;;;;;10.32;54.73;63823.00;4934213;29;20035;-81
2023/04/26 09:31:47;;;;;;;3.37;1.70;;;;;;;10.42;50.16;63833.91;4934994;29;20038;-81
2023/04/26 09:34:13;;;;;;;2.03;1.60;;;;;;;10.55;50.96;63846.13;4917055;29;20636;-82
2023/04/26 09:36:55;;;;;;;4.40;1.70;;;;;;;10.69;53.78;63860.53;4935367;29;20054;-81
2023/04/26 09:39:34;;;;;;;7.80;1.90;;;;;;;10.82;52.54;63873.75;4934840;29;20027;-81
2023/04/26 09:42:00;;;;;;;6.32;1.60;;;;;;;10.93;51.89;63885.25;4934738;29;20692;-83
2023/04/26 09:44:27;;;;;;;6.82;1.88;;;;;;;11.03;50.53;63895.00;4933747;29;20035;-81
2023/04/26 09:47:12;;;;;;;6.07;1.60;;;;;;;11.11;52.91;63902.16;4934504;29;20038;-82
2023/04/26 09:49:49;;;;;;;5.82;1.80;;;;;;;11.16;52.86;63906.91;4934980;29;20155;-83
2023/04/26 09:52:15;;;;;;;7.30;1.80;;;;;;;11.19;53.43;63910.81;4934728;29;20032;-81
2023/04/26 09:54:51;;;;;;;5.17;1.70;;;;;;;11.21;54.67;63913.31;4934375;29;20303;-82
2023/04/26 09:57:18;;;;;;;8.55;2.05;;;;;;;11.25;52.28;63916.47;4934805;29;20039;-80
2023/04/26 09:59:51;;;;;;;6.40;1.42;;;;;;;11.27;52.00;63919.31;4933048;29;20034;-81
2023/04/26 10:02:25;;;;;;;3.75;1.60;;;;;;;11.31;53.25;63923.13;4951126;29;20030;-81
2023/04/26 10:04:54;;;;;;;3.92;1.35;;;;;;;11.36;51.87;63928.53;4937884;29;20062;-81
2023/04/26 10:07:24;;;;;;;4.13;1.40;;;;;;;11.42;49.02;63934.13;4920645;29;20054;-82
2023/04/26 10:09:49;;;;;;;4.10;1.48;;;;;;;11.47;49.91;63939.88;4935611;29;20127;-81
2023/04/26 10:12:18;;;;;;;6.55;1.98;;;;;;;11.51;49.53;63944.19;4934190;29;20027;-81
2023/04/26 10:14:48;;;;;;;5.90;1.87;;;;;;;11.54;51.67;63946.44;4933021;29;20384;-81
2023/04/26 10:32:04;;;;;;;5.22;2.05;;;;;;;11.48;54.09;63941.19;4945768;23;20137;-81
2023/04/26 10:34:32;;;;;;;3.65;2.15;;;;;;;11.44;52.73;63936.94;4955676;28;20460;-81
2023/04/26 10:37:12;;;;;;;7.68;2.25;;;;;;;11.39;54.75;63931.63;4952541;28;20023;-82
2023/04/26 10:39:39;;;;;;;4.37;2.37;;;;;;;11.34;52.83;63927.03;4953749;28;20027;-81
2023/04/26 10:42:22;;;;;;;5.80;2.40;;;;;;;11.31;53.99;63923.53;4953376;28;20303;-81
2023/04/26 10:44:48;;;;;;;4.55;2.00;;;;;;;11.28;54.76;63920.47;4937011;29;20387;-82
2023/04/26 10:47:31;;;;;;;5.03;1.65;;;;;;;11.26;51.92;63919.31;4917244;29;20028;-82
2023/04/26 10:50:10;;;;;;;6.35;2.00;;;;;;;11.26;53.02;63919.38;4915121;29;20027;-82
2023/04/26 10:52:58;;;;;;;5.72;2.10;;;;;;;11.28;53.30;63921.13;4953037;28;20369;-82
2023/04/26 10:55:44;;;;;;;4.53;2.35;;;;;;;11.33;53.31;63925.78;4943474;29;20028;-82
2023/04/26 10:58:28;;;;;;;4.40;1.88;;;;;;;11.39;49.54;63931.28;4952070;29;20043;-82
2023/04/26 11:01:07;;;;;;;5.65;2.60;;;;;;;11.44;48.42;63936.94;4952590;29;20499;-82
2023/04/26 11:03:33;;;;;;;4.50;2.08;;;;;;;11.49;48.41;63941.69;4943805;29;20027;-82
2023/04/26 11:05:59;;;;;;;5.57;2.07;;;;;;;11.52;48.33;63944.75;4916606;29;20031;-82
2023/04/26 11:08:30;;;;;;;5.20;2.30;;;;;;;11.56;49.32;63949.25;4933377;29;20043;-82
2023/04/26 11:11:12;;;;;;;4.20;2.58;;;;;;;11.61;49.54;63954.03;4933521;29;20032;-82
2023/04/26 11:13:39;;;;;;;5.20;2.50;;;;;;;11.66;48.98;63958.69;4946366;28;20495;-82
2023/04/26 11:16:15;;;;;;;7.57;2.47;;;;;;;11.72;49.96;63964.84;4952766;28;20024;-82
2023/04/26 11:18:46;;;;;;;8.20;2.65;;;;;;;11.81;49.32;63974.41;4945149;28;20479;-82
2023/04/26 11:21:16;;;;;;;7.15;2.38;;;;;;;11.93;47.55;63985.91;4952877;28;20330;-81
2023/04/26 11:23:41;;;;;;;6.40;2.10;;;;;;;12.06;45.19;63998.91;4951838;29;20066;-84
2023/04/26 11:26:08;;;;;;;4.80;2.00;;;;;;;12.19;45.36;64012.66;4918473;29;20332;-83
2023/04/26 11:28:35;;;;;;;8.23;2.42;;;;;;;12.33;43.81;64025.91;4914468;29;20044;-82
2023/04/26 11:31:06;;;;;;;3.30;1.80;;;;;;;12.45;41.27;64038.25;4914287;29;20067;-82
2023/04/26 11:33:33;;;;;;;4.78;1.90;;;;;;;12.57;43.10;64051.56;4899010;29;20130;-81
2023/04/26 11:35:58;;;;;;;4.00;1.90;;;;;;;12.72;41.63;64066.16;4931697;29;20030;-82
2023/04/26 11:38:25;;;;;;;8.20;2.40;;;;;;;12.85;40.95;64079.00;4931130;29;20032;-79
2023/04/26 11:40:59;;;;;;;8.80;3.20;;;;;;;12.97;43.42;64090.47;4913342;29;20040;-80
2023/04/26 11:43:38;;;;;;;7.30;2.83;;;;;;;13.07;42.94;64101.97;4930947;29;20019;-80
2023/04/26 11:46:06;;;;;;;7.28;2.97;;;;;;;13.17;43.37;64111.16;4932670;29;20028;-80
2023/04/26 11:48:34;;;;;;;5.97;2.60;;;;;;;13.28;44.11;64122.41;4930812;29;20039;-81
2023/04/26 11:51:02;;;;;;;8.65;2.80;;;;;;;13.39;42.77;64133.75;4929776;29;20055;-82
2023/04/26 11:53:54;;;;;;;5.70;2.53;;;;;;;13.51;44.70;64146.84;4920400;29;20027;-82
2023/04/26 11:56:42;;;;;;;6.93;2.67;;;;;;;13.64;43.82;64160.44;4915513;29;20048;-82
2023/04/26 11:59:09;;;;;;;6.60;3.17;;;;;;;13.74;39.94;64170.72;4928540;29;20311;-81
2023/04/26 12:01:35;;;;;;;5.00;2.95;;;;;;;13.83;41.89;64179.03;4932682;29;20031;-79
2023/04/26 12:04:00;;;;;;;7.43;2.70;;;;;;;13.91;41.87;64187.63;4932783;29;20024;-80
2023/04/26 12:06:31;;;;;;;4.47;2.80;;;;;;;13.98;43.53;64194.56;4934175;29;20115;-81
2023/04/26 12:08:56;;;;;;;6.60;3.10;;;;;;;14.05;40.51;64202.06;4927095;29;20039;-80
2023/04/26 12:11:22;;;;;;;8.30;3.43;;;;;;;14.13;41.41;64210.06;4909562;29;20308;-81
2023/04/26 12:13:47;;;;;;;6.60;2.90;;;;;;;14.19;40.56;64216.31;4905323;29;20819;-81
2023/04/26 12:16:13;;;;;;;6.67;3.17;;;;;;;14.26;42.99;64223.00;4896945;29;20056;-82